Terminal Aerodrome Forecast
Issued by NWS Missoula, MT

Home | Current Version | Previous Version | Text Only | Print | Product List | Glossary On
Versions: 1 2 3 4 5 6 7 8 9 10 11 12 13
000
FTUS45 KMSO 191721
TAFGPI
TAF
KGPI 191721Z 1918/2018 07003KT P6SM SCT030 OVC100
     FM191900 17005KT P6SM VCSH OVC035
     FM200500 22005KT P6SM -RASN BKN025 OVC035
     FM201500 VRB05KT 5SM -RASN BR OVC025=

USA.gov is the U.S. government's official web portal to all federal, state and local government web resources and services.